Time,TemperatureF,DewpointF,PressureIn,WindDirection,WindDirectionDegrees,WindSpeedMPH,WindSpeedGustMPH,Humidity,HourlyPrecipIn,Conditions,Clouds,dailyrainin,SoftwareType,DateUTC
2013-05-14 00:02:00,44.4,37.6,30.13,East,90,2.0,2.0,77,0.00,,,0.00,meteohub,2013-05-14 07:02:00,
2013-05-14 00:08:00,44.8,37.9,30.13,East,90,2.0,3.0,77,0.00,,,0.00,meteohub,2013-05-14 07:08:00,
2013-05-14 00:14:00,45.1,37.9,30.13,East,90,3.0,3.0,76,0.00,,,0.00,meteohub,2013-05-14 07:14:00,
2013-05-14 00:20:00,45.0,37.6,30.13,SW,225,2.0,4.0,75,0.00,,,0.00,meteohub,2013-05-14 07:20:00,
2013-05-14 00:26:00,44.4,37.4,30.13,SW,225,1.0,4.0,76,0.00,,,0.00,meteohub,2013-05-14 07:26:00,
2013-05-14 00:32:00,44.2,37.2,30.13,NE,45,0.0,2.0,76,0.00,,,0.00,meteohub,2013-05-14 07:32:00,
2013-05-14 00:37:00,43.9,36.9,30.13,NE,45,0.0,2.0,76,0.00,,,0.00,meteohub,2013-05-14 07:37:00,
2013-05-14 00:42:00,43.5,36.9,30.13,SW,225,2.0,2.0,77,0.00,,,0.00,meteohub,2013-05-14 07:42:00,
2013-05-14 00:47:00,43.3,36.9,30.13,SW,225,2.0,2.0,78,0.00,,,0.00,meteohub,2013-05-14 07:47:00,
2013-05-14 00:52:00,43.3,37.2,30.13,SW,225,1.0,2.0,79,0.00,,,0.00,meteohub,2013-05-14 07:52:00,
2013-05-14 00:57:00,43.0,36.9,30.13,SW,225,0.0,2.0,79,0.00,,,0.00,meteohub,2013-05-14 07:57:00,
2013-05-14 01:02:00,42.8,36.7,30.13,SW,225,0.0,2.0,79,0.00,,,0.00,meteohub,2013-05-14 08:02:00,
2013-05-14 01:07:00,42.4,36.7,30.13,SW,225,1.0,1.0,80,0.00,,,0.00,meteohub,2013-05-14 08:07:00,
2013-05-14 01:12:00,42.3,36.9,30.13,SW,225,2.0,2.0,81,0.00,,,0.00,meteohub,2013-05-14 08:12:00,
2013-05-14 01:17:00,42.3,36.9,30.13,South,180,1.0,2.0,81,0.00,,,0.00,meteohub,2013-05-14 08:17:00,
2013-05-14 01:22:00,42.1,36.7,30.12,SW,225,2.0,2.0,81,0.00,,,0.00,meteohub,2013-05-14 08:22:00,
2013-05-14 01:27:00,42.1,36.7,30.12,SW,225,1.0,2.0,81,0.00,,,0.00,meteohub,2013-05-14 08:27:00,
2013-05-14 01:32:00,41.9,36.9,30.13,SW,225,2.0,2.0,82,0.00,,,0.00,meteohub,2013-05-14 08:32:00,
2013-05-14 01:37:00,41.9,36.9,30.12,SW,225,0.0,2.0,82,0.00,,,0.00,meteohub,2013-05-14 08:37:00,
2013-05-14 01:42:00,41.7,36.7,30.12,SW,225,0.0,2.0,82,0.00,,,0.00,meteohub,2013-05-14 08:42:00,
2013-05-14 01:47:00,41.5,36.5,30.12,SW,225,1.0,2.0,82,0.00,,,0.00,meteohub,2013-05-14 08:47:00,
2013-05-14 01:52:00,41.5,36.5,30.12,SW,225,1.0,1.0,82,0.00,,,0.00,meteohub,2013-05-14 08:52:00,
2013-05-14 01:57:00,41.4,36.3,30.12,SW,225,1.0,2.0,82,0.00,,,0.00,meteohub,2013-05-14 08:57:00,
2013-05-14 02:02:00,41.4,36.5,30.12,South,180,1.0,2.0,83,0.00,,,0.00,meteohub,2013-05-14 09:02:00,
2013-05-14 02:07:00,41.2,36.5,30.12,SW,225,1.0,2.0,83,0.00,,,0.00,meteohub,2013-05-14 09:07:00,
2013-05-14 02:12:00,41.2,36.5,30.12,SW,225,2.0,2.0,83,0.00,,,0.00,meteohub,2013-05-14 09:12:00,
2013-05-14 02:17:00,41.2,36.5,30.12,SW,225,2.0,2.0,83,0.00,,,0.00,meteohub,2013-05-14 09:17:00,
2013-05-14 02:22:00,41.2,36.5,30.12,SW,225,1.0,2.0,83,0.00,,,0.00,meteohub,2013-05-14 09:22:00,
2013-05-14 02:27:00,41.2,36.5,30.12,SW,225,0.0,2.0,83,0.00,,,0.00,meteohub,2013-05-14 09:27:00,
2013-05-14 02:32:00,41.0,36.0,30.12,SW,225,0.0,2.0,82,0.00,,,0.00,meteohub,2013-05-14 09:32:00,
2013-05-14 02:37:00,41.0,36.0,30.12,SW,225,2.0,2.0,82,0.00,,,0.00,meteohub,2013-05-14 09:37:00,
2013-05-14 02:42:00,40.8,36.1,30.12,SW,225,2.0,2.0,83,0.00,,,0.00,meteohub,2013-05-14 09:42:00,
2013-05-14 02:47:00,40.6,36.0,30.13,SW,225,2.0,2.0,83,0.00,,,0.00,meteohub,2013-05-14 09:47:00,
2013-05-14 02:52:00,40.6,36.0,30.12,SW,225,2.0,2.0,83,0.00,,,0.00,meteohub,2013-05-14 09:52:00,
2013-05-14 02:57:00,40.6,36.0,30.12,SW,225,1.0,2.0,83,0.00,,,0.00,meteohub,2013-05-14 09:57:00,
2013-05-14 03:02:00,40.5,35.8,30.12,SW,225,0.0,2.0,83,0.00,,,0.00,meteohub,2013-05-14 10:02:00,
2013-05-14 03:07:00,40.3,35.6,30.12,SW,225,0.0,2.0,83,0.00,,,0.00,meteohub,2013-05-14 10:07:00,
2013-05-14 03:12:00,39.9,35.2,30.12,SW,225,0.0,2.0,83,0.00,,,0.00,meteohub,2013-05-14 10:12:00,
2013-05-14 03:17:00,39.9,35.2,30.13,SW,225,0.0,1.0,83,0.00,,,0.00,meteohub,2013-05-14 10:17:00,
2013-05-14 03:23:00,39.7,35.2,30.13,SW,225,0.0,0.0,84,0.00,,,0.00,meteohub,2013-05-14 10:23:00,
2013-05-14 03:29:00,39.6,35.1,30.13,SW,225,0.0,0.0,84,0.00,,,0.00,meteohub,2013-05-14 10:29:00,
2013-05-14 03:35:00,39.4,34.9,30.13,SW,225,1.0,2.0,84,0.00,,,0.00,meteohub,2013-05-14 10:35:00,
2013-05-14 03:41:00,39.2,34.7,30.13,SW,225,0.0,2.0,84,0.00,,,0.00,meteohub,2013-05-14 10:41:00,
2013-05-14 03:47:00,39.2,34.7,30.13,NE,45,1.0,2.0,84,0.00,,,0.00,meteohub,2013-05-14 10:47:00,
2013-05-14 03:52:00,38.8,35.1,30.13,North,0,1.0,2.0,86,0.00,,,0.00,meteohub,2013-05-14 10:52:00,
2013-05-14 03:57:00,38.8,35.1,30.13,North,0,2.0,2.0,86,0.00,,,0.00,meteohub,2013-05-14 10:57:00,
2013-05-14 04:02:00,38.7,34.9,30.12,SE,135,0.0,2.0,86,0.00,,,0.00,meteohub,2013-05-14 11:02:00,
2013-05-14 04:07:00,38.5,34.7,30.12,SE,135,1.0,2.0,86,0.00,,,0.00,meteohub,2013-05-14 11:07:00,
2013-05-14 04:12:00,38.5,34.7,30.12,SW,225,0.0,2.0,86,0.00,,,0.00,meteohub,2013-05-14 11:12:00,
2013-05-14 04:17:00,38.5,34.9,30.12,SW,225,1.0,1.0,87,0.00,,,0.00,meteohub,2013-05-14 11:17:00,
2013-05-14 04:22:00,38.5,34.9,30.12,SW,225,0.0,1.0,87,0.00,,,0.00,meteohub,2013-05-14 11:22:00,
2013-05-14 04:27:00,38.5,34.9,30.11,East,90,2.0,2.0,87,0.00,,,0.00,meteohub,2013-05-14 11:27:00,
2013-05-14 04:32:00,38.3,34.7,30.11,SW,225,2.0,2.0,87,0.00,,,0.00,meteohub,2013-05-14 11:32:00,
2013-05-14 04:37:00,38.3,34.7,30.11,SE,135,2.0,2.0,87,0.00,,,0.00,meteohub,2013-05-14 11:37:00,
2013-05-14 04:42:00,38.1,34.9,30.11,SW,225,2.0,2.0,88,0.00,,,0.00,meteohub,2013-05-14 11:42:00,
2013-05-14 04:47:00,37.9,34.7,30.11,SW,225,1.0,2.0,88,0.00,,,0.00,meteohub,2013-05-14 11:47:00,
2013-05-14 04:52:00,37.9,34.3,30.11,South,180,1.0,2.0,87,0.00,,,0.00,meteohub,2013-05-14 11:52:00,
2013-05-14 04:57:00,37.8,34.2,30.11,SW,225,0.0,2.0,87,0.00,,,0.00,meteohub,2013-05-14 11:57:00,
2013-05-14 05:02:00,37.6,34.0,30.11,SW,225,1.0,2.0,87,0.00,,,0.00,meteohub,2013-05-14 12:02:00,
2013-05-14 05:07:00,37.4,33.8,30.11,SW,225,0.0,2.0,87,0.00,,,0.00,meteohub,2013-05-14 12:07:00,
2013-05-14 05:12:00,37.2,32.9,30.11,SW,225,1.0,1.0,84,0.00,,,0.00,meteohub,2013-05-14 12:12:00,
2013-05-14 05:17:00,37.0,32.7,30.11,West,270,0.0,2.0,84,0.00,,,0.00,meteohub,2013-05-14 12:17:00,
2013-05-14 05:22:00,36.9,32.5,30.11,SE,135,1.0,2.0,84,0.00,,,0.00,meteohub,2013-05-14 12:22:00,
2013-05-14 05:27:00,36.7,32.4,30.12,SE,135,2.0,2.0,84,0.00,,,0.00,meteohub,2013-05-14 12:27:00,
2013-05-14 05:32:00,36.5,32.2,30.12,SE,135,0.0,2.0,84,0.00,,,0.00,meteohub,2013-05-14 12:32:00,
2013-05-14 05:37:00,36.3,32.0,30.12,SE,135,0.0,2.0,84,0.00,,,0.00,meteohub,2013-05-14 12:37:00,
2013-05-14 05:42:00,36.1,32.0,30.12,SE,135,1.0,2.0,85,0.00,,,0.00,meteohub,2013-05-14 12:42:00,
2013-05-14 05:47:00,36.1,32.0,30.13,SE,135,1.0,1.0,85,0.00,,,0.00,meteohub,2013-05-14 12:47:00,
2013-05-14 05:52:00,36.0,32.5,30.12,SE,135,1.0,1.0,87,0.00,,,0.00,meteohub,2013-05-14 12:52:00,
2013-05-14 05:57:00,35.8,32.5,30.12,SW,225,1.0,1.0,88,0.00,,,0.00,meteohub,2013-05-14 12:57:00,
2013-05-14 06:02:00,35.8,32.5,30.12,SW,225,2.0,2.0,88,0.00,,,0.00,meteohub,2013-05-14 13:02:00,
2013-05-14 06:07:00,36.0,33.1,30.12,East,90,2.0,2.0,89,0.00,,,0.00,meteohub,2013-05-14 13:07:00,
2013-05-14 06:12:00,36.1,33.4,30.13,SW,225,0.0,2.0,90,0.00,,,0.00,meteohub,2013-05-14 13:12:00,
2013-05-14 06:17:00,36.5,34.2,30.13,South,180,1.0,2.0,91,0.00,,,0.00,meteohub,2013-05-14 13:17:00,
2013-05-14 06:22:00,36.7,34.3,30.13,SW,225,2.0,2.0,91,0.00,,,0.00,meteohub,2013-05-14 13:22:00,
2013-05-14 06:27:00,36.5,34.3,30.13,SW,225,1.0,2.0,92,0.00,,,0.00,meteohub,2013-05-14 13:27:00,
2013-05-14 06:32:00,36.9,34.7,30.13,NE,45,1.0,2.0,92,0.00,,,0.00,meteohub,2013-05-14 13:32:00,
2013-05-14 06:37:00,36.9,35.1,30.13,East,90,1.0,2.0,93,0.00,,,0.00,meteohub,2013-05-14 13:37:00,
2013-05-14 06:42:00,37.0,35.2,30.13,East,90,1.0,1.0,93,0.00,,,0.00,meteohub,2013-05-14 13:42:00,
2013-05-14 06:47:00,37.2,35.6,30.13,East,90,1.0,1.0,94,0.00,,,0.00,meteohub,2013-05-14 13:47:00,
2013-05-14 06:52:00,37.4,36.9,30.13,South,180,0.0,1.0,98,0.00,,,0.00,meteohub,2013-05-14 13:52:00,
2013-05-14 06:57:00,37.6,37.0,30.14,East,90,1.0,1.0,98,0.00,,,0.00,meteohub,2013-05-14 13:57:00,
2013-05-14 07:02:00,37.8,37.6,30.14,NE,45,1.0,2.0,99,0.00,,,0.00,meteohub,2013-05-14 14:02:00,
2013-05-14 07:07:00,37.9,37.8,30.14,East,90,1.0,2.0,99,0.00,,,0.00,meteohub,2013-05-14 14:07:00,
2013-05-14 07:12:00,38.5,38.3,30.14,NE,45,1.0,2.0,99,0.00,,,0.00,meteohub,2013-05-14 14:12:00,
2013-05-14 07:17:00,38.8,38.7,30.14,East,90,2.0,2.0,99,0.00,,,0.00,meteohub,2013-05-14 14:17:00,
2013-05-14 07:22:00,39.7,39.6,30.13,NE,45,2.0,2.0,99,0.00,,,0.00,meteohub,2013-05-14 14:22:00,
2013-05-14 07:27:00,41.0,40.5,30.13,East,90,2.0,3.0,98,0.00,,,0.00,meteohub,2013-05-14 14:27:00,
2013-05-14 07:32:00,42.4,42.3,30.13,North,0,4.0,4.0,99,0.00,,,0.00,meteohub,2013-05-14 14:32:00,
2013-05-14 07:37:00,43.3,42.6,30.14,NE,45,2.0,4.0,97,0.00,,,0.00,meteohub,2013-05-14 14:37:00,
2013-05-14 07:42:00,43.9,42.6,30.14,NE,45,2.0,4.0,95,0.00,,,0.00,meteohub,2013-05-14 14:42:00,
2013-05-14 07:47:00,44.6,42.4,30.13,NE,45,3.0,4.0,92,0.00,,,0.00,meteohub,2013-05-14 14:47:00,
2013-05-14 07:52:00,45.5,42.8,30.13,East,90,3.0,4.0,90,0.00,,,0.00,meteohub,2013-05-14 14:52:00,
2013-05-14 07:57:00,45.9,42.3,30.13,East,90,3.0,4.0,87,0.00,,,0.00,meteohub,2013-05-14 14:57:00,
2013-05-14 08:02:00,46.8,42.3,30.13,East,90,3.0,4.0,84,0.00,,,0.00,meteohub,2013-05-14 15:02:00,
2013-05-14 08:07:00,47.3,42.4,30.13,East,90,4.0,4.0,83,0.00,,,0.00,meteohub,2013-05-14 15:07:00,
2013-05-14 08:12:00,48.0,43.2,30.13,East,90,2.0,4.0,83,0.00,,,0.00,meteohub,2013-05-14 15:12:00,
2013-05-14 08:17:00,48.6,43.3,30.12,North,0,3.0,4.0,82,0.00,,,0.00,meteohub,2013-05-14 15:17:00,
2013-05-14 08:22:00,49.1,43.5,30.13,West,270,2.0,4.0,81,0.00,,,0.00,meteohub,2013-05-14 15:22:00,
2013-05-14 08:27:00,49.3,44.1,30.13,SW,225,2.0,3.0,82,0.00,,,0.00,meteohub,2013-05-14 15:27:00,
2013-05-14 08:32:00,49.3,43.7,30.12,South,180,2.0,3.0,81,0.00,,,0.00,meteohub,2013-05-14 15:32:00,
2013-05-14 08:37:00,50.0,43.7,30.12,SW,225,1.0,3.0,79,0.00,,,0.00,meteohub,2013-05-14 15:37:00,
2013-05-14 08:42:00,50.0,42.1,30.12,SW,225,2.0,3.0,74,0.00,,,0.00,meteohub,2013-05-14 15:42:00,
2013-05-14 08:47:00,50.2,41.5,30.13,NW,315,2.0,3.0,72,0.00,,,0.00,meteohub,2013-05-14 15:47:00,
2013-05-14 08:52:00,50.5,41.2,30.12,East,90,3.0,3.0,70,0.00,,,0.00,meteohub,2013-05-14 15:52:00,
2013-05-14 08:57:00,51.6,42.1,30.12,NW,315,3.0,3.0,70,0.00,,,0.00,meteohub,2013-05-14 15:57:00,
2013-05-14 09:02:00,51.8,40.1,30.12,NW,315,2.0,4.0,64,0.00,,,0.00,meteohub,2013-05-14 16:02:00,
2013-05-14 09:07:00,51.6,39.9,30.12,NW,315,3.0,4.0,64,0.00,,,0.00,meteohub,2013-05-14 16:07:00,
2013-05-14 09:12:00,52.0,39.7,30.12,NW,315,3.0,4.0,63,0.00,,,0.00,meteohub,2013-05-14 16:12:00,
2013-05-14 09:17:00,52.2,39.9,30.12,NW,315,4.0,4.0,63,0.00,,,0.00,meteohub,2013-05-14 16:17:00,
2013-05-14 09:23:00,52.0,39.4,30.11,SE,135,2.0,4.0,62,0.00,,,0.00,meteohub,2013-05-14 16:23:00,
2013-05-14 09:29:00,53.1,40.8,30.11,North,0,6.0,6.0,63,0.00,,,0.00,meteohub,2013-05-14 16:29:00,
2013-05-14 09:35:00,53.8,40.3,30.11,NE,45,3.0,6.0,60,0.00,,,0.00,meteohub,2013-05-14 16:35:00,
2013-05-14 09:41:00,55.4,41.4,30.11,East,90,7.0,7.0,59,0.00,,,0.00,meteohub,2013-05-14 16:41:00,
2013-05-14 09:47:00,55.4,39.9,30.11,NE,45,4.0,7.0,56,0.00,,,0.00,meteohub,2013-05-14 16:47:00,
2013-05-14 09:52:00,55.9,39.9,30.11,NE,45,4.0,7.0,55,0.00,,,0.00,meteohub,2013-05-14 16:52:00,
2013-05-14 09:57:00,56.3,39.9,30.11,East,90,7.0,8.0,54,0.00,,,0.00,meteohub,2013-05-14 16:57:00,
2013-05-14 10:02:00,56.3,39.9,30.11,East,90,7.0,8.0,54,0.00,,,0.00,meteohub,2013-05-14 17:02:00,
2013-05-14 10:07:00,57.0,40.1,30.10,East,90,6.0,7.0,53,0.00,,,0.00,meteohub,2013-05-14 17:07:00,
2013-05-14 10:12:00,57.2,39.7,30.10,NW,315,2.0,7.0,52,0.00,,,0.00,meteohub,2013-05-14 17:12:00,
2013-05-14 10:17:00,57.0,39.6,30.10,NW,315,4.0,7.0,52,0.00,,,0.00,meteohub,2013-05-14 17:17:00,
2013-05-14 10:22:00,56.1,38.3,30.09,East,90,2.0,6.0,51,0.00,,,0.00,meteohub,2013-05-14 17:22:00,
2013-05-14 10:27:00,56.1,39.2,30.10,SW,225,3.0,5.0,53,0.00,,,0.00,meteohub,2013-05-14 17:27:00,
2013-05-14 10:32:00,56.1,38.7,30.10,NW,315,4.0,5.0,52,0.00,,,0.00,meteohub,2013-05-14 17:32:00,
2013-05-14 10:37:00,55.9,37.6,30.10,West,270,3.0,7.0,50,0.00,,,0.00,meteohub,2013-05-14 17:37:00,
2013-05-14 10:42:00,56.7,39.2,30.10,SW,225,4.0,7.0,52,0.00,,,0.00,meteohub,2013-05-14 17:42:00,
2013-05-14 10:47:00,57.0,39.0,30.09,North,0,4.0,7.0,51,0.00,,,0.00,meteohub,2013-05-14 17:47:00,
2013-05-14 10:52:00,58.8,40.3,30.10,NE,45,4.0,6.0,50,0.00,,,0.00,meteohub,2013-05-14 17:52:00,
2013-05-14 10:57:00,59.5,37.6,30.10,West,270,3.0,6.0,44,0.00,,,0.00,meteohub,2013-05-14 17:57:00,
2013-05-14 11:02:00,59.2,37.2,30.10,North,0,4.0,6.0,44,0.00,,,0.00,meteohub,2013-05-14 18:02:00,
2013-05-14 11:07:00,59.2,37.9,30.10,East,90,5.0,6.0,45,0.00,,,0.00,meteohub,2013-05-14 18:07:00,
2013-05-14 11:12:00,60.1,38.7,30.09,East,90,2.0,7.0,45,0.00,,,0.00,meteohub,2013-05-14 18:12:00,
2013-05-14 11:17:00,60.8,37.6,30.09,West,270,4.0,7.0,42,0.00,,,0.00,meteohub,2013-05-14 18:17:00,
2013-05-14 11:22:00,61.0,37.0,30.10,NE,45,4.0,7.0,41,0.00,,,0.00,meteohub,2013-05-14 18:22:00,
2013-05-14 11:27:00,61.7,38.3,30.09,East,90,4.0,6.0,42,0.00,,,0.00,meteohub,2013-05-14 18:27:00,
2013-05-14 11:32:00,62.2,37.6,30.09,West,270,4.0,6.0,40,0.00,,,0.00,meteohub,2013-05-14 18:32:00,
2013-05-14 11:37:00,62.6,36.7,30.09,NW,315,2.0,7.0,38,0.00,,,0.00,meteohub,2013-05-14 18:37:00,
2013-05-14 11:42:00,62.1,34.2,30.09,NW,315,3.0,7.0,35,0.00,,,0.00,meteohub,2013-05-14 18:42:00,
2013-05-14 11:47:00,62.1,34.9,30.09,NW,315,7.0,7.0,36,0.00,,,0.00,meteohub,2013-05-14 18:47:00,
2013-05-14 11:52:00,62.2,32.0,30.09,South,180,3.0,7.0,32,0.00,,,0.00,meteohub,2013-05-14 18:52:00,
2013-05-14 11:57:00,62.2,34.2,30.09,East,90,2.0,7.0,35,0.00,,,0.00,meteohub,2013-05-14 18:57:00,
2013-05-14 12:02:00,62.6,34.5,30.08,NE,45,3.0,7.0,35,0.00,,,0.00,meteohub,2013-05-14 19:02:00,
2013-05-14 12:07:00,63.0,31.8,30.08,NE,45,3.0,8.0,31,0.00,,,0.00,meteohub,2013-05-14 19:07:00,
2013-05-14 12:12:00,64.0,32.7,30.08,NE,45,8.0,8.0,31,0.00,,,0.00,meteohub,2013-05-14 19:12:00,
2013-05-14 12:17:00,64.2,31.3,30.08,South,180,3.0,8.0,29,0.00,,,0.00,meteohub,2013-05-14 19:17:00,
2013-05-14 12:22:00,63.5,27.0,30.08,East,90,2.0,8.0,25,0.00,,,0.00,meteohub,2013-05-14 19:22:00,
2013-05-14 12:27:00,62.8,26.4,30.08,NE,45,2.0,8.0,25,0.00,,,0.00,meteohub,2013-05-14 19:27:00,
2013-05-14 12:32:00,62.8,24.4,30.07,SW,225,4.0,8.0,23,0.00,,,0.00,meteohub,2013-05-14 19:32:00,
2013-05-14 12:37:00,63.0,26.6,30.07,South,180,2.0,8.0,25,0.00,,,0.00,meteohub,2013-05-14 19:37:00,
2013-05-14 12:42:00,63.5,27.0,30.07,East,90,5.0,5.0,25,0.00,,,0.00,meteohub,2013-05-14 19:42:00,
2013-05-14 12:47:00,64.4,29.7,30.07,SE,135,10.0,10.0,27,0.00,,,0.00,meteohub,2013-05-14 19:47:00,
2013-05-14 12:52:00,64.0,27.5,30.07,West,270,4.0,11.0,25,0.00,,,0.00,meteohub,2013-05-14 19:52:00,
2013-05-14 12:57:00,64.0,26.6,30.06,NW,315,2.0,11.0,24,0.00,,,0.00,meteohub,2013-05-14 19:57:00,
2013-05-14 13:02:00,64.8,32.5,30.06,West,270,2.0,11.0,30,0.00,,,0.00,meteohub,2013-05-14 20:02:00,
2013-05-14 13:07:00,65.1,33.8,30.06,SSE,158,3.0,6.0,31,0.00,,,0.00,meteohub,2013-05-14 20:07:00,
2013-05-14 13:12:00,65.3,34.7,30.06,South,180,8.0,8.0,32,0.00,,,0.00,meteohub,2013-05-14 20:12:00,
2013-05-14 13:17:00,65.1,36.1,30.06,SW,225,3.0,8.0,34,0.00,,,0.00,meteohub,2013-05-14 20:17:00,
2013-05-14 13:22:00,64.9,35.1,30.05,NE,45,3.0,8.0,33,0.00,,,0.00,meteohub,2013-05-14 20:22:00,
2013-05-14 13:27:00,65.3,36.1,30.05,SW,225,4.0,8.0,34,0.00,,,0.00,meteohub,2013-05-14 20:27:00,
2013-05-14 13:32:00,65.3,36.1,30.05,West,270,2.0,5.0,34,0.00,,,0.00,meteohub,2013-05-14 20:32:00,
2013-05-14 13:37:00,65.3,35.4,30.05,South,180,3.0,5.0,33,0.00,,,0.00,meteohub,2013-05-14 20:37:00,
2013-05-14 13:42:00,64.9,35.1,30.05,West,270,2.0,5.0,33,0.00,,,0.00,meteohub,2013-05-14 20:42:00,
2013-05-14 13:47:00,65.8,36.0,30.04,NE,45,6.0,6.0,33,0.00,,,0.00,meteohub,2013-05-14 20:47:00,
2013-05-14 13:52:00,66.7,36.0,30.04,SW,225,2.0,7.0,32,0.00,,,0.00,meteohub,2013-05-14 20:52:00,
2013-05-14 13:57:00,67.3,37.2,30.04,SW,225,2.0,7.0,33,0.00,,,0.00,meteohub,2013-05-14 20:57:00,
2013-05-14 14:02:00,67.3,36.5,30.04,WNW,293,4.0,7.0,32,0.00,,,0.00,meteohub,2013-05-14 21:02:00,
2013-05-14 14:07:00,66.9,36.1,30.04,North,0,4.0,5.0,32,0.00,,,0.00,meteohub,2013-05-14 21:07:00,
2013-05-14 14:12:00,67.3,34.0,30.04,North,0,4.0,6.0,29,0.00,,,0.00,meteohub,2013-05-14 21:12:00,
2013-05-14 14:17:00,67.1,36.3,30.04,SW,225,4.0,10.0,32,0.00,,,0.00,meteohub,2013-05-14 21:17:00,
2013-05-14 14:22:00,67.3,35.6,30.04,SW,225,3.0,10.0,31,0.00,,,0.00,meteohub,2013-05-14 21:22:00,
2013-05-14 14:27:00,68.0,35.4,30.04,NW,315,8.0,10.0,30,0.00,,,0.00,meteohub,2013-05-14 21:27:00,
2013-05-14 14:32:00,68.0,35.4,30.04,East,90,5.0,8.0,30,0.00,,,0.00,meteohub,2013-05-14 21:32:00,
2013-05-14 14:37:00,68.4,36.5,30.04,NW,315,2.0,8.0,31,0.00,,,0.00,meteohub,2013-05-14 21:37:00,
2013-05-14 14:42:00,69.1,37.2,30.03,SW,225,5.0,8.0,31,0.00,,,0.00,meteohub,2013-05-14 21:42:00,
2013-05-14 14:47:00,69.1,36.3,30.03,East,90,7.0,7.0,30,0.00,,,0.00,meteohub,2013-05-14 21:47:00,
2013-05-14 14:52:00,69.4,34.0,30.03,NE,45,4.0,7.0,27,0.00,,,0.00,meteohub,2013-05-14 21:52:00,
2013-05-14 14:57:00,69.6,35.1,30.03,NE,45,6.0,7.0,28,0.00,,,0.00,meteohub,2013-05-14 21:57:00,
2013-05-14 15:02:00,70.0,31.5,30.03,NW,315,8.0,8.0,24,0.00,,,0.00,meteohub,2013-05-14 22:02:00,
2013-05-14 15:07:00,70.0,31.5,30.02,SE,135,8.0,9.0,24,0.00,,,0.00,meteohub,2013-05-14 22:07:00,
2013-05-14 15:12:00,69.6,36.0,30.02,NW,315,7.0,9.0,29,0.00,,,0.00,meteohub,2013-05-14 22:12:00,
2013-05-14 15:17:00,69.1,35.4,30.02,SE,135,5.0,9.0,29,0.00,,,0.00,meteohub,2013-05-14 22:17:00,
2013-05-14 15:22:00,69.1,35.4,30.02,North,0,4.0,8.0,29,0.00,,,0.00,meteohub,2013-05-14 22:22:00,
2013-05-14 15:27:00,70.0,32.5,30.02,North,0,7.0,7.0,25,0.00,,,0.00,meteohub,2013-05-14 22:27:00,
2013-05-14 15:32:00,69.8,29.3,30.01,South,180,6.0,10.0,22,0.00,,,0.00,meteohub,2013-05-14 22:32:00,
2013-05-14 15:37:00,69.8,29.3,30.01,North,0,5.0,10.0,22,0.00,,,0.00,meteohub,2013-05-14 22:37:00,
2013-05-14 15:42:00,70.2,28.4,30.01,North,0,2.0,10.0,21,0.00,,,0.00,meteohub,2013-05-14 22:42:00,
2013-05-14 15:47:00,70.3,29.7,30.01,NW,315,4.0,8.0,22,0.00,,,0.00,meteohub,2013-05-14 22:47:00,
2013-05-14 15:52:00,70.0,29.3,30.01,North,0,6.0,8.0,22,0.00,,,0.00,meteohub,2013-05-14 22:52:00,
2013-05-14 15:57:00,69.6,29.1,30.01,NE,45,8.0,8.0,22,0.00,,,0.00,meteohub,2013-05-14 22:57:00,
2013-05-14 16:02:00,69.1,29.7,30.00,SW,225,10.0,10.0,23,0.00,,,0.00,meteohub,2013-05-14 23:02:00,
2013-05-14 16:07:00,68.7,30.4,30.01,NE,45,4.0,17.0,24,0.00,,,0.00,meteohub,2013-05-14 23:07:00,
2013-05-14 16:12:00,69.4,31.1,30.01,North,0,12.0,17.0,24,0.00,,,0.00,meteohub,2013-05-14 23:12:00,
2013-05-14 16:17:00,69.4,30.0,30.01,North,0,3.0,17.0,23,0.00,,,0.00,meteohub,2013-05-14 23:17:00,
2013-05-14 16:22:00,69.4,30.0,30.01,East,90,8.0,12.0,23,0.00,,,0.00,meteohub,2013-05-14 23:22:00,
2013-05-14 16:27:00,69.4,30.0,30.01,NW,315,4.0,12.0,23,0.00,,,0.00,meteohub,2013-05-14 23:27:00,
2013-05-14 16:32:00,69.6,30.2,30.01,SE,135,4.0,11.0,23,0.00,,,0.00,meteohub,2013-05-14 23:32:00,
2013-05-14 16:37:00,69.8,31.5,30.01,West,270,11.0,11.0,24,0.00,,,0.00,meteohub,2013-05-14 23:37:00,
2013-05-14 16:42:00,69.4,30.0,30.02,NW,315,4.0,11.0,23,0.00,,,0.00,meteohub,2013-05-14 23:42:00,
2013-05-14 16:47:00,69.1,30.7,30.01,North,0,3.0,11.0,24,0.00,,,0.00,meteohub,2013-05-14 23:47:00,
2013-05-14 16:52:00,69.1,29.7,30.01,NW,315,5.0,11.0,23,0.00,,,0.00,meteohub,2013-05-14 23:52:00,
2013-05-14 16:57:00,69.3,32.0,30.01,NW,315,4.0,9.0,25,0.00,,,0.00,meteohub,2013-05-14 23:57:00,
2013-05-14 17:02:00,69.1,30.7,30.01,NE,45,10.0,10.0,24,0.00,,,0.00,meteohub,2013-05-15 00:02:00,
2013-05-14 17:07:00,68.7,31.5,30.01,North,0,5.0,10.0,25,0.00,,,0.00,meteohub,2013-05-15 00:07:00,
2013-05-14 17:12:00,68.5,32.4,30.01,North,0,11.0,11.0,26,0.00,,,0.00,meteohub,2013-05-15 00:12:00,
2013-05-14 17:17:00,68.5,32.4,30.01,NW,315,8.0,11.0,26,0.00,,,0.00,meteohub,2013-05-15 00:17:00,
2013-05-14 17:22:00,68.7,34.3,30.01,NE,45,10.0,11.0,28,0.00,,,0.00,meteohub,2013-05-15 00:22:00,
2013-05-14 17:27:00,68.7,34.3,30.01,North,0,6.0,11.0,28,0.00,,,0.00,meteohub,2013-05-15 00:27:00,
2013-05-14 17:32:00,68.5,34.2,30.01,West,270,5.0,13.0,28,0.00,,,0.00,meteohub,2013-05-15 00:32:00,
2013-05-14 17:37:00,68.4,33.1,30.01,NW,315,5.0,13.0,27,0.00,,,0.00,meteohub,2013-05-15 00:37:00,
2013-05-14 17:42:00,68.2,33.8,30.01,East,90,6.0,11.0,28,0.00,,,0.00,meteohub,2013-05-15 00:42:00,
2013-05-14 17:47:00,68.2,33.8,30.01,West,270,5.0,8.0,28,0.00,,,0.00,meteohub,2013-05-15 00:47:00,
2013-05-14 17:52:00,67.8,34.3,30.01,NW,315,8.0,8.0,29,0.00,,,0.00,meteohub,2013-05-15 00:52:00,
2013-05-14 17:57:00,67.3,34.0,30.01,SW,225,5.0,8.0,29,0.00,,,0.00,meteohub,2013-05-15 00:57:00,
2013-05-14 18:02:00,66.7,35.1,30.00,East,90,4.0,10.0,31,0.00,,,0.00,meteohub,2013-05-15 01:02:00,
2013-05-14 18:07:00,66.7,35.1,30.01,WNW,293,7.0,10.0,31,0.00,,,0.00,meteohub,2013-05-15 01:07:00,
2013-05-14 18:12:00,66.6,35.1,30.01,NW,315,8.0,10.0,31,0.00,,,0.00,meteohub,2013-05-15 01:12:00,
2013-05-14 18:17:00,66.2,34.7,30.01,North,0,4.0,11.0,31,0.00,,,0.00,meteohub,2013-05-15 01:17:00,
2013-05-14 18:22:00,65.8,35.2,30.01,NW,315,8.0,11.0,32,0.00,,,0.00,meteohub,2013-05-15 01:22:00,
2013-05-14 18:27:00,65.8,35.2,30.01,North,0,7.0,11.0,32,0.00,,,0.00,meteohub,2013-05-15 01:27:00,
2013-05-14 18:32:00,65.7,35.1,30.01,North,0,4.0,9.0,32,0.00,,,0.00,meteohub,2013-05-15 01:32:00,
2013-05-14 18:37:00,65.3,34.7,30.01,West,270,7.0,9.0,32,0.00,,,0.00,meteohub,2013-05-15 01:37:00,
2013-05-14 18:42:00,65.1,34.5,30.01,North,0,4.0,9.0,32,0.00,,,0.00,meteohub,2013-05-15 01:42:00,
2013-05-14 18:47:00,64.9,34.3,30.01,NE,45,5.0,9.0,32,0.00,,,0.00,meteohub,2013-05-15 01:47:00,
2013-05-14 18:52:00,64.8,35.1,30.01,NW,315,3.0,9.0,33,0.00,,,0.00,meteohub,2013-05-15 01:52:00,
2013-05-14 18:57:00,64.8,35.1,30.01,NE,45,4.0,8.0,33,0.00,,,0.00,meteohub,2013-05-15 01:57:00,
2013-05-14 19:02:00,64.8,34.2,30.01,NW,315,5.0,8.0,32,0.00,,,0.00,meteohub,2013-05-15 02:02:00,
2013-05-14 19:07:00,64.2,32.9,30.01,WSW,248,5.0,9.0,31,0.00,,,0.00,meteohub,2013-05-15 02:07:00,
2013-05-14 19:12:00,64.0,32.7,30.01,North,0,4.0,9.0,31,0.00,,,0.00,meteohub,2013-05-15 02:12:00,
2013-05-14 19:17:00,63.9,33.4,30.01,NW,315,4.0,9.0,32,0.00,,,0.00,meteohub,2013-05-15 02:17:00,
2013-05-14 19:22:00,63.9,34.2,30.01,NE,45,5.0,8.0,33,0.00,,,0.00,meteohub,2013-05-15 02:22:00,
2013-05-14 19:27:00,63.9,34.9,30.01,West,270,4.0,8.0,34,0.00,,,0.00,meteohub,2013-05-15 02:27:00,
2013-05-14 19:32:00,63.7,33.3,30.02,NW,315,8.0,8.0,32,0.00,,,0.00,meteohub,2013-05-15 02:32:00,
2013-05-14 19:37:00,63.3,32.2,30.01,NW,315,5.0,8.0,31,0.00,,,0.00,meteohub,2013-05-15 02:37:00,
2013-05-14 19:42:00,63.1,32.0,30.02,NW,315,4.0,8.0,31,0.00,,,0.00,meteohub,2013-05-15 02:42:00,
2013-05-14 19:47:00,63.0,31.8,30.02,WNW,293,5.0,8.0,31,0.00,,,0.00,meteohub,2013-05-15 02:47:00,
2013-05-14 19:52:00,62.8,30.9,30.02,NW,315,4.0,8.0,30,0.00,,,0.00,meteohub,2013-05-15 02:52:00,
2013-05-14 19:57:00,62.4,31.5,30.02,NW,315,4.0,10.0,31,0.00,,,0.00,meteohub,2013-05-15 02:57:00,
2013-05-14 20:02:00,62.1,31.1,30.02,North,0,2.0,10.0,31,0.00,,,0.00,meteohub,2013-05-15 03:02:00,
2013-05-14 20:07:00,61.9,30.9,30.02,NW,315,3.0,10.0,31,0.00,,,0.00,meteohub,2013-05-15 03:07:00,
2013-05-14 20:12:00,61.7,30.7,30.02,NW,315,5.0,7.0,31,0.00,,,0.00,meteohub,2013-05-15 03:12:00,
2013-05-14 20:17:00,61.3,30.4,30.03,NE,45,7.0,7.0,31,0.00,,,0.00,meteohub,2013-05-15 03:17:00,
2013-05-14 20:22:00,61.2,30.2,30.03,West,270,5.0,7.0,31,0.00,,,0.00,meteohub,2013-05-15 03:22:00,
2013-05-14 20:27:00,60.8,30.7,30.03,West,270,2.0,7.0,32,0.00,,,0.00,meteohub,2013-05-15 03:27:00,
2013-05-14 20:32:00,60.4,31.3,30.03,West,270,4.0,9.0,33,0.00,,,0.00,meteohub,2013-05-15 03:32:00,
2013-05-14 20:37:00,60.1,30.9,30.03,NW,315,4.0,9.0,33,0.00,,,0.00,meteohub,2013-05-15 03:37:00,
2013-05-14 20:42:00,59.7,31.3,30.04,NW,315,3.0,9.0,34,0.00,,,0.00,meteohub,2013-05-15 03:42:00,
2013-05-14 20:47:00,59.4,31.6,30.04,NW,315,4.0,5.0,35,0.00,,,0.00,meteohub,2013-05-15 03:47:00,
2013-05-14 20:52:00,59.0,33.4,30.04,West,270,6.0,8.0,38,0.00,,,0.00,meteohub,2013-05-15 03:52:00,
2013-05-14 20:57:00,58.5,34.2,30.04,NW,315,3.0,8.0,40,0.00,,,0.00,meteohub,2013-05-15 03:57:00,
2013-05-14 21:01:00,58.3,34.7,30.04,West,270,5.0,8.0,41,0.00,,,0.00,meteohub,2013-05-15 04:01:00,
2013-05-14 21:02:00,58.3,34.7,30.04,West,270,5.0,8.0,41,0.00,,,0.00,meteohub,2013-05-15 04:02:00,
2013-05-14 21:05:00,58.1,34.5,30.04,NW,315,5.0,7.0,41,0.00,,,0.00,meteohub,2013-05-15 04:05:00,
2013-05-14 21:07:00,57.9,34.9,30.04,West,270,4.0,7.0,42,0.00,,,0.00,meteohub,2013-05-15 04:07:00,
2013-05-14 21:12:00,57.7,34.9,30.04,NE,45,2.0,7.0,42,0.00,,,0.00,meteohub,2013-05-15 04:12:00,
2013-05-14 21:17:00,57.4,35.1,30.05,NW,315,4.0,5.0,43,0.00,,,0.00,meteohub,2013-05-15 04:17:00,
2013-05-14 21:22:00,57.0,36.0,30.05,NW,315,4.0,6.0,45,0.00,,,0.00,meteohub,2013-05-15 04:22:00,
2013-05-14 21:27:00,56.8,35.8,30.05,NE,45,2.0,6.0,45,0.00,,,0.00,meteohub,2013-05-15 04:27:00,
2013-05-14 21:32:00,56.5,36.0,30.05,West,270,4.0,8.0,46,0.00,,,0.00,meteohub,2013-05-15 04:32:00,
2013-05-14 21:37:00,56.1,36.1,30.06,WNW,293,2.0,8.0,47,0.00,,,0.00,meteohub,2013-05-15 04:37:00,
2013-05-14 21:42:00,55.8,35.8,30.05,NW,315,2.0,4.0,47,0.00,,,0.00,meteohub,2013-05-15 04:42:00,
2013-05-14 21:47:00,55.4,36.0,30.06,NW,315,3.0,4.0,48,0.00,,,0.00,meteohub,2013-05-15 04:47:00,
2013-05-14 21:52:00,55.2,36.9,30.06,NE,45,2.0,7.0,50,0.00,,,0.00,meteohub,2013-05-15 04:52:00,
2013-05-14 21:57:00,55.2,37.4,30.06,West,270,2.0,7.0,51,0.00,,,0.00,meteohub,2013-05-15 04:57:00,
2013-05-14 22:02:00,55.0,37.8,30.06,NW,315,4.0,7.0,52,0.00,,,0.00,meteohub,2013-05-15 05:02:00,
2013-05-14 22:07:00,54.9,38.1,30.06,NW,315,4.0,6.0,53,0.00,,,0.00,meteohub,2013-05-15 05:07:00,
2013-05-14 22:12:00,54.9,38.5,30.06,West,270,2.0,8.0,54,0.00,,,0.00,meteohub,2013-05-15 05:12:00,
2013-05-14 22:17:00,54.7,38.8,30.06,NW,315,3.0,8.0,55,0.00,,,0.00,meteohub,2013-05-15 05:17:00,
2013-05-14 22:22:00,54.3,39.0,30.06,NW,315,4.0,4.0,56,0.00,,,0.00,meteohub,2013-05-15 05:22:00,
2013-05-14 22:27:00,54.1,39.2,30.06,NW,315,4.0,4.0,57,0.00,,,0.00,meteohub,2013-05-15 05:27:00,
2013-05-14 22:32:00,54.1,39.2,30.06,NW,315,5.0,5.0,57,0.00,,,0.00,meteohub,2013-05-15 05:32:00,
2013-05-14 22:37:00,54.0,38.7,30.06,NW,315,5.0,6.0,56,0.00,,,0.00,meteohub,2013-05-15 05:37:00,
2013-05-14 22:42:00,53.8,37.6,30.06,North,0,4.0,8.0,54,0.00,,,0.00,meteohub,2013-05-15 05:42:00,
2013-05-14 22:47:00,53.6,36.9,30.06,NNE,23,4.0,8.0,53,0.00,,,0.00,meteohub,2013-05-15 05:47:00,
2013-05-14 22:52:00,53.4,37.2,30.06,NW,315,3.0,8.0,54,0.00,,,0.00,meteohub,2013-05-15 05:52:00,
2013-05-14 22:57:00,53.1,36.9,30.06,NW,315,4.0,7.0,54,0.00,,,0.00,meteohub,2013-05-15 05:57:00,
2013-05-14 23:02:00,52.9,36.1,30.06,North,0,4.0,4.0,53,0.00,,,0.00,meteohub,2013-05-15 06:02:00,
2013-05-14 23:07:00,52.9,36.1,30.05,North,0,4.0,4.0,53,0.00,,,0.00,meteohub,2013-05-15 06:07:00,
2013-05-14 23:12:00,52.3,35.2,30.05,NW,315,5.0,8.0,52,0.00,,,0.00,meteohub,2013-05-15 06:12:00,
2013-05-14 23:17:00,52.0,34.9,30.06,NW,315,4.0,8.0,52,0.00,,,0.00,meteohub,2013-05-15 06:17:00,
2013-05-14 23:22:00,51.8,34.2,30.05,ENE,68,1.0,8.0,51,0.00,,,0.00,meteohub,2013-05-15 06:22:00,
2013-05-14 23:27:00,51.6,34.5,30.06,NW,315,1.0,5.0,52,0.00,,,0.00,meteohub,2013-05-15 06:27:00,
2013-05-14 23:32:00,51.3,34.2,30.05,West,270,1.0,4.0,52,0.00,,,0.00,meteohub,2013-05-15 06:32:00,
2013-05-14 23:37:00,50.9,34.3,30.06,South,180,1.0,2.0,53,0.00,,,0.00,meteohub,2013-05-15 06:37:00,
2013-05-14 23:42:00,50.5,34.0,30.06,SW,225,1.0,2.0,53,0.00,,,0.00,meteohub,2013-05-15 06:42:00,
2013-05-14 23:47:00,50.2,33.6,30.05,NE,45,0.0,2.0,53,0.00,,,0.00,meteohub,2013-05-15 06:47:00,
2013-05-14 23:52:00,49.8,33.8,30.06,South,180,1.0,2.0,54,0.00,,,0.00,meteohub,2013-05-15 06:52:00,
2013-05-14 23:57:00,49.5,34.0,30.05,South,180,1.0,2.0,55,0.00,,,0.00,meteohub,2013-05-15 06:57:00,